sensor_id;sensor_type;location;lat;lon;timestamp;temperature;humidity
2543;DHT22;1116;51.502;7.414;2022-11-13T00:00:12;8.00;28.10
2543;DHT22;1116;51.502;7.414;2022-11-13T00:02:42;8.10;27.30
2543;DHT22;1116;51.502;7.414;2022-11-13T00:05:14;8.10;27.10
2543;DHT22;1116;51.502;7.414;2022-11-13T00:07:45;8.10;26.70
2543;DHT22;1116;51.502;7.414;2022-11-13T00:10:18;8.00;27.20
2543;DHT22;1116;51.502;7.414;2022-11-13T00:12:49;8.00;26.60
2543;DHT22;1116;51.502;7.414;2022-11-13T00:15:20;8.00;27.30
2543;DHT22;1116;51.502;7.414;2022-11-13T00:17:52;8.00;26.80
2543;DHT22;1116;51.502;7.414;2022-11-13T00:20:23;8.00;27.40
2543;DHT22;1116;51.502;7.414;2022-11-13T00:22:53;8.00;27.00
2543;DHT22;1116;51.502;7.414;2022-11-13T00:25:27;8.00;27.00
2543;DHT22;1116;51.502;7.414;2022-11-13T00:27:59;7.90;26.80
2543;DHT22;1116;51.502;7.414;2022-11-13T00:30:30;7.90;26.80
2543;DHT22;1116;51.502;7.414;2022-11-13T00:33:00;7.90;27.30
2543;DHT22;1116;51.502;7.414;2022-11-13T00:35:32;7.90;27.40
2543;DHT22;1116;51.502;7.414;2022-11-13T00:38:05;7.90;27.20
2543;DHT22;1116;51.502;7.414;2022-11-13T00:40:39;8.30;27.40
2543;DHT22;1116;51.502;7.414;2022-11-13T00:43:11;7.70;26.80
2543;DHT22;1116;51.502;7.414;2022-11-13T00:45:42;7.80;27.20
2543;DHT22;1116;51.502;7.414;2022-11-13T00:48:13;7.80;27.70
2543;DHT22;1116;51.502;7.414;2022-11-13T00:50:47;7.70;26.90
2543;DHT22;1116;51.502;7.414;2022-11-13T00:53:18;7.70;26.90
2543;DHT22;1116;51.502;7.414;2022-11-13T00:55:51;7.70;27.40
2543;DHT22;1116;51.502;7.414;2022-11-13T00:58:24;8.10;27.30
2543;DHT22;1116;51.502;7.414;2022-11-13T01:01:03;7.60;27.50
2543;DHT22;1116;51.502;7.414;2022-11-13T01:03:35;7.60;26.90
2543;DHT22;1116;51.502;7.414;2022-11-13T01:06:12;7.50;27.20
2543;DHT22;1116;51.502;7.414;2022-11-13T01:08:44;7.50;27.40
2543;DHT22;1116;51.502;7.414;2022-11-13T01:11:22;7.50;27.20
2543;DHT22;1116;51.502;7.414;2022-11-13T01:13:53;7.50;27.90
2543;DHT22;1116;51.502;7.414;2022-11-13T01:16:25;7.40;27.00
2543;DHT22;1116;51.502;7.414;2022-11-13T01:18:56;7.40;27.40
2543;DHT22;1116;51.502;7.414;2022-11-13T01:21:27;7.30;26.80
2543;DHT22;1116;51.502;7.414;2022-11-13T01:24:00;7.30;27.70
2543;DHT22;1116;51.502;7.414;2022-11-13T01:26:33;7.30;27.70
2543;DHT22;1116;51.502;7.414;2022-11-13T01:29:08;7.30;27.40
2543;DHT22;1116;51.502;7.414;2022-11-13T01:31:39;7.20;27.40
2543;DHT22;1116;51.502;7.414;2022-11-13T01:34:11;7.20;27.80
2543;DHT22;1116;51.502;7.414;2022-11-13T01:36:42;7.30;28.50
2543;DHT22;1116;51.502;7.414;2022-11-13T01:39:13;7.20;27.60
2543;DHT22;1116;51.502;7.414;2022-11-13T01:41:46;7.20;27.30
2543;DHT22;1116;51.502;7.414;2022-11-13T01:44:18;7.20;27.80
2543;DHT22;1116;51.502;7.414;2022-11-13T01:46:51;7.10;27.60
2543;DHT22;1116;51.502;7.414;2022-11-13T01:49:27;7.10;27.60
2543;DHT22;1116;51.502;7.414;2022-11-13T01:52:02;7.10;27.70
2543;DHT22;1116;51.502;7.414;2022-11-13T01:54:37;7.10;27.80
2543;DHT22;1116;51.502;7.414;2022-11-13T01:57:12;7.10;27.70
2543;DHT22;1116;51.502;7.414;2022-11-13T01:59:47;7.10;27.60
2543;DHT22;1116;51.502;7.414;2022-11-13T02:02:19;7.10;27.60
2543;DHT22;1116;51.502;7.414;2022-11-13T02:04:52;7.10;27.60
2543;DHT22;1116;51.502;7.414;2022-11-13T02:07:23;7.00;28.10
2543;DHT22;1116;51.502;7.414;2022-11-13T02:09:57;7.00;27.60
2543;DHT22;1116;51.502;7.414;2022-11-13T02:12:33;7.00;27.40
2543;DHT22;1116;51.502;7.414;2022-11-13T02:15:07;6.90;27.40
2543;DHT22;1116;51.502;7.414;2022-11-13T02:17:44;6.90;27.20
2543;DHT22;1116;51.502;7.414;2022-11-13T02:20:18;6.90;27.50
2543;DHT22;1116;51.502;7.414;2022-11-13T02:22:56;6.80;27.30
2543;DHT22;1116;51.502;7.414;2022-11-13T02:25:33;7.00;28.50
2543;DHT22;1116;51.502;7.414;2022-11-13T02:28:06;6.70;27.60
2543;DHT22;1116;51.502;7.414;2022-11-13T02:30:37;6.70;27.80
2543;DHT22;1116;51.502;7.414;2022-11-13T02:33:23;6.70;29.20
2543;DHT22;1116;51.502;7.414;2022-11-13T02:35:55;6.70;28.80
2543;DHT22;1116;51.502;7.414;2022-11-13T02:38:26;6.70;29.40
2543;DHT22;1116;51.502;7.414;2022-11-13T02:41:00;6.70;29.10
2543;DHT22;1116;51.502;7.414;2022-11-13T02:43:30;6.70;28.40
2543;DHT22;1116;51.502;7.414;2022-11-13T02:46:01;6.80;29.10
2543;DHT22;1116;51.502;7.414;2022-11-13T02:48:32;6.80;28.40
2543;DHT22;1116;51.502;7.414;2022-11-13T02:51:05;6.70;27.80
2543;DHT22;1116;51.502;7.414;2022-11-13T02:53:36;6.70;28.10
2543;DHT22;1116;51.502;7.414;2022-11-13T02:56:09;6.70;28.80
2543;DHT22;1116;51.502;7.414;2022-11-13T02:58:40;6.70;28.40
2543;DHT22;1116;51.502;7.414;2022-11-13T03:01:11;6.70;27.40
2543;DHT22;1116;51.502;7.414;2022-11-13T03:03:43;6.70;27.50
2543;DHT22;1116;51.502;7.414;2022-11-13T03:06:24;6.60;27.60
2543;DHT22;1116;51.502;7.414;2022-11-13T03:08:55;6.60;27.80
2543;DHT22;1116;51.502;7.414;2022-11-13T03:11:28;6.30;27.70
2543;DHT22;1116;51.502;7.414;2022-11-13T03:13:59;6.60;28.60
2543;DHT22;1116;51.502;7.414;2022-11-13T03:16:33;6.50;27.70
2543;DHT22;1116;51.502;7.414;2022-11-13T03:19:04;6.50;28.30
2543;DHT22;1116;51.502;7.414;2022-11-13T03:21:35;6.50;27.90
2543;DHT22;1116;51.502;7.414;2022-11-13T03:24:06;6.40;27.40
2543;DHT22;1116;51.502;7.414;2022-11-13T03:26:41;6.40;29.20
2543;DHT22;1116;51.502;7.414;2022-11-13T03:29:12;6.40;29.10
2543;DHT22;1116;51.502;7.414;2022-11-13T03:31:46;6.20;28.10
2543;DHT22;1116;51.502;7.414;2022-11-13T03:34:19;6.30;28.30
2543;DHT22;1116;51.502;7.414;2022-11-13T03:36:50;6.30;28.50
2543;DHT22;1116;51.502;7.414;2022-11-13T03:39:21;6.20;28.10
2543;DHT22;1116;51.502;7.414;2022-11-13T03:41:54;6.10;28.20
2543;DHT22;1116;51.502;7.414;2022-11-13T03:44:25;6.20;29.70
2543;DHT22;1116;51.502;7.414;2022-11-13T03:46:56;6.20;29.60
2543;DHT22;1116;51.502;7.414;2022-11-13T03:49:27;6.10;28.00
2543;DHT22;1116;51.502;7.414;2022-11-13T03:51:57;6.00;28.10
2543;DHT22;1116;51.502;7.414;2022-11-13T03:54:28;6.10;28.60
2543;DHT22;1116;51.502;7.414;2022-11-13T03:57:02;6.10;28.10
2543;DHT22;1116;51.502;7.414;2022-11-13T03:59:33;6.00;29.20
2543;DHT22;1116;51.502;7.414;2022-11-13T04:02:04;6.00;27.70
2543;DHT22;1116;51.502;7.414;2022-11-13T04:04:35;5.90;28.10
2543;DHT22;1116;51.502;7.414;2022-11-13T04:07:06;6.00;28.50
2543;DHT22;1116;51.502;7.414;2022-11-13T04:09:37;5.90;28.60
2543;DHT22;1116;51.502;7.414;2022-11-13T04:12:10;5.90;28.00
2543;DHT22;1116;51.502;7.414;2022-11-13T04:14:41;5.90;28.30
2543;DHT22;1116;51.502;7.414;2022-11-13T04:17:12;5.80;29.00
2543;DHT22;1116;51.502;7.414;2022-11-13T04:19:42;5.80;28.40
2543;DHT22;1116;51.502;7.414;2022-11-13T04:22:13;5.80;28.30
2543;DHT22;1116;51.502;7.414;2022-11-13T04:24:44;5.80;28.10
2543;DHT22;1116;51.502;7.414;2022-11-13T04:27:17;5.80;29.10
2543;DHT22;1116;51.502;7.414;2022-11-13T04:29:52;6.30;29.50
2543;DHT22;1116;51.502;7.414;2022-11-13T04:32:22;5.80;28.80
2543;DHT22;1116;51.502;7.414;2022-11-13T04:34:53;5.70;28.50
2543;DHT22;1116;51.502;7.414;2022-11-13T04:37:27;5.80;29.00
2543;DHT22;1116;51.502;7.414;2022-11-13T04:39:57;5.80;28.70
2543;DHT22;1116;51.502;7.414;2022-11-13T04:42:31;5.70;28.50
2543;DHT22;1116;51.502;7.414;2022-11-13T04:45:15;5.70;29.40
2543;DHT22;1116;51.502;7.414;2022-11-13T04:47:46;5.70;29.40
2543;DHT22;1116;51.502;7.414;2022-11-13T04:50:20;5.90;28.80
2543;DHT22;1116;51.502;7.414;2022-11-13T04:52:52;5.60;29.30
2543;DHT22;1116;51.502;7.414;2022-11-13T04:55:22;5.60;29.40
2543;DHT22;1116;51.502;7.414;2022-11-13T04:57:56;5.60;29.90
2543;DHT22;1116;51.502;7.414;2022-11-13T05:00:27;5.60;28.90
2543;DHT22;1116;51.502;7.414;2022-11-13T05:02:57;5.50;28.70
2543;DHT22;1116;51.502;7.414;2022-11-13T05:05:28;5.50;29.20
2543;DHT22;1116;51.502;7.414;2022-11-13T05:07:59;5.50;29.30
2543;DHT22;1116;51.502;7.414;2022-11-13T05:10:30;5.50;28.70
2543;DHT22;1116;51.502;7.414;2022-11-13T05:13:06;5.50;29.20
2543;DHT22;1116;51.502;7.414;2022-11-13T05:15:40;5.40;28.50
2543;DHT22;1116;51.502;7.414;2022-11-13T05:18:11;5.40;29.00
2543;DHT22;1116;51.502;7.414;2022-11-13T05:20:42;5.40;28.90
2543;DHT22;1116;51.502;7.414;2022-11-13T05:23:13;5.40;28.40
2543;DHT22;1116;51.502;7.414;2022-11-13T05:25:43;5.80;29.50
2543;DHT22;1116;51.502;7.414;2022-11-13T05:28:17;5.40;29.30
2543;DHT22;1116;51.502;7.414;2022-11-13T05:30:48;5.40;29.20
2543;DHT22;1116;51.502;7.414;2022-11-13T05:33:18;5.30;28.40
2543;DHT22;1116;51.502;7.414;2022-11-13T05:35:49;5.10;29.10
2543;DHT22;1116;51.502;7.414;2022-11-13T05:38:20;5.30;29.20
2543;DHT22;1116;51.502;7.414;2022-11-13T05:40:51;5.30;29.20
2543;DHT22;1116;51.502;7.414;2022-11-13T05:43:25;5.30;28.50
2543;DHT22;1116;51.502;7.414;2022-11-13T05:46:02;5.30;29.10
2543;DHT22;1116;51.502;7.414;2022-11-13T05:48:34;5.30;29.10
2543;DHT22;1116;51.502;7.414;2022-11-13T05:51:09;5.20;29.10
2543;DHT22;1116;51.502;7.414;2022-11-13T05:53:43;5.20;29.10
2543;DHT22;1116;51.502;7.414;2022-11-13T05:56:17;5.20;29.80
2543;DHT22;1116;51.502;7.414;2022-11-13T05:58:53;5.20;29.10
2543;DHT22;1116;51.502;7.414;2022-11-13T06:01:27;5.20;29.10
2543;DHT22;1116;51.502;7.414;2022-11-13T06:04:00;5.10;29.10
2543;DHT22;1116;51.502;7.414;2022-11-13T06:06:31;5.10;29.10
2543;DHT22;1116;51.502;7.414;2022-11-13T06:09:05;5.20;30.00
2543;DHT22;1116;51.502;7.414;2022-11-13T06:11:36;5.10;29.10
2543;DHT22;1116;51.502;7.414;2022-11-13T06:14:09;5.10;29.10
2543;DHT22;1116;51.502;7.414;2022-11-13T06:16:41;5.10;30.00
2543;DHT22;1116;51.502;7.414;2022-11-13T06:19:11;5.00;29.10
2543;DHT22;1116;51.502;7.414;2022-11-13T06:21:42;5.00;29.80
2543;DHT22;1116;51.502;7.414;2022-11-13T06:24:13;5.00;30.00
2543;DHT22;1116;51.502;7.414;2022-11-13T06:26:44;5.00;30.20
2543;DHT22;1116;51.502;7.414;2022-11-13T06:29:17;5.00;30.70
2543;DHT22;1116;51.502;7.414;2022-11-13T06:31:48;4.90;29.80
2543;DHT22;1116;51.502;7.414;2022-11-13T06:34:24;5.00;30.70
2543;DHT22;1116;51.502;7.414;2022-11-13T06:36:55;5.30;30.30
2543;DHT22;1116;51.502;7.414;2022-11-13T06:39:28;5.00;30.70
2543;DHT22;1116;51.502;7.414;2022-11-13T06:41:59;5.00;30.10
2543;DHT22;1116;51.502;7.414;2022-11-13T06:44:35;5.30;29.70
2543;DHT22;1116;51.502;7.414;2022-11-13T06:47:06;5.20;30.60
2543;DHT22;1116;51.502;7.414;2022-11-13T06:49:37;4.90;30.90
2543;DHT22;1116;51.502;7.414;2022-11-13T06:52:07;4.90;30.00
2543;DHT22;1116;51.502;7.414;2022-11-13T06:54:38;4.90;30.40
2543;DHT22;1116;51.502;7.414;2022-11-13T06:57:09;4.90;31.20
2543;DHT22;1116;51.502;7.414;2022-11-13T06:59:43;5.30;31.60
2543;DHT22;1116;51.502;7.414;2022-11-13T07:02:17;4.80;31.50
2543;DHT22;1116;51.502;7.414;2022-11-13T07:04:47;4.80;31.20
2543;DHT22;1116;51.502;7.414;2022-11-13T07:07:18;4.80;31.50
2543;DHT22;1116;51.502;7.414;2022-11-13T07:09:50;4.90;31.10
2543;DHT22;1116;51.502;7.414;2022-11-13T07:12:20;4.90;30.50
2543;DHT22;1116;51.502;7.414;2022-11-13T07:14:54;4.90;31.20
2543;DHT22;1116;51.502;7.414;2022-11-13T07:17:25;4.90;31.10
2543;DHT22;1116;51.502;7.414;2022-11-13T07:20:00;4.90;31.40
2543;DHT22;1116;51.502;7.414;2022-11-13T07:22:33;4.90;32.40
2543;DHT22;1116;51.502;7.414;2022-11-13T07:25:04;4.90;30.70
2543;DHT22;1116;51.502;7.414;2022-11-13T07:27:36;5.00;32.00
2543;DHT22;1116;51.502;7.414;2022-11-13T07:30:10;5.00;31.70
2543;DHT22;1116;51.502;7.414;2022-11-13T07:32:43;5.00;31.40
2543;DHT22;1116;51.502;7.414;2022-11-13T07:35:14;5.00;32.30
2543;DHT22;1116;51.502;7.414;2022-11-13T07:37:54;5.10;32.60
2543;DHT22;1116;51.502;7.414;2022-11-13T07:40:25;5.10;32.30
2543;DHT22;1116;51.502;7.414;2022-11-13T07:42:56;5.10;31.50
2543;DHT22;1116;51.502;7.414;2022-11-13T07:45:30;5.20;31.20
2543;DHT22;1116;51.502;7.414;2022-11-13T07:48:02;5.20;31.60
2543;DHT22;1116;51.502;7.414;2022-11-13T07:50:35;5.20;31.90
2543;DHT22;1116;51.502;7.414;2022-11-13T07:53:08;5.20;32.60
2543;DHT22;1116;51.502;7.414;2022-11-13T07:55:42;5.30;32.70
2543;DHT22;1116;51.502;7.414;2022-11-13T07:58:13;5.30;32.10
2543;DHT22;1116;51.502;7.414;2022-11-13T08:00:46;5.40;33.60
2543;DHT22;1116;51.502;7.414;2022-11-13T08:03:17;5.20;33.10
2543;DHT22;1116;51.502;7.414;2022-11-13T08:05:48;5.50;33.90
2543;DHT22;1116;51.502;7.414;2022-11-13T08:08:19;5.60;35.00
2543;DHT22;1116;51.502;7.414;2022-11-13T08:10:50;5.70;35.00
2543;DHT22;1116;51.502;7.414;2022-11-13T08:13:21;5.80;35.30
2543;DHT22;1116;51.502;7.414;2022-11-13T08:16:00;5.80;36.20
2543;DHT22;1116;51.502;7.414;2022-11-13T08:18:32;5.90;39.30
2543;DHT22;1116;51.502;7.414;2022-11-13T08:21:03;6.00;41.20
2543;DHT22;1116;51.502;7.414;2022-11-13T08:23:40;6.10;43.10
2543;DHT22;1116;51.502;7.414;2022-11-13T08:26:15;6.20;42.50
2543;DHT22;1116;51.502;7.414;2022-11-13T08:28:46;6.50;41.60
2543;DHT22;1116;51.502;7.414;2022-11-13T08:31:23;6.50;41.40
2543;DHT22;1116;51.502;7.414;2022-11-13T08:33:54;6.60;40.40
2543;DHT22;1116;51.502;7.414;2022-11-13T08:36:25;7.00;39.70
2543;DHT22;1116;51.502;7.414;2022-11-13T08:38:56;7.10;39.60
2543;DHT22;1116;51.502;7.414;2022-11-13T08:41:27;6.90;39.10
2543;DHT22;1116;51.502;7.414;2022-11-13T08:43:59;7.00;38.80
2543;DHT22;1116;51.502;7.414;2022-11-13T08:46:36;7.20;38.70
2543;DHT22;1116;51.502;7.414;2022-11-13T08:49:09;7.30;37.60
2543;DHT22;1116;51.502;7.414;2022-11-13T08:51:40;7.40;36.90
2543;DHT22;1116;51.502;7.414;2022-11-13T08:54:11;7.60;36.60
2543;DHT22;1116;51.502;7.414;2022-11-13T08:56:42;7.70;33.50
2543;DHT22;1116;51.502;7.414;2022-11-13T08:59:19;7.80;33.10
2543;DHT22;1116;51.502;7.414;2022-11-13T09:01:56;7.90;32.90
2543;DHT22;1116;51.502;7.414;2022-11-13T09:04:28;7.90;33.00
2543;DHT22;1116;51.502;7.414;2022-11-13T09:06:59;8.00;31.00
2543;DHT22;1116;51.502;7.414;2022-11-13T09:09:30;8.00;31.00
2543;DHT22;1116;51.502;7.414;2022-11-13T09:12:01;8.20;28.60
2543;DHT22;1116;51.502;7.414;2022-11-13T09:14:32;8.30;28.50
2543;DHT22;1116;51.502;7.414;2022-11-13T09:17:05;8.40;28.20
2543;DHT22;1116;51.502;7.414;2022-11-13T09:19:37;8.50;26.70
2543;DHT22;1116;51.502;7.414;2022-11-13T09:22:08;8.50;26.10
2543;DHT22;1116;51.502;7.414;2022-11-13T09:24:39;8.70;24.40
2543;DHT22;1116;51.502;7.414;2022-11-13T09:27:10;8.80;23.50
2543;DHT22;1116;51.502;7.414;2022-11-13T09:29:42;8.90;23.20
2543;DHT22;1116;51.502;7.414;2022-11-13T09:32:22;9.00;21.30
2543;DHT22;1116;51.502;7.414;2022-11-13T09:34:54;9.20;21.40
2543;DHT22;1116;51.502;7.414;2022-11-13T09:37:25;9.20;21.40
2543;DHT22;1116;51.502;7.414;2022-11-13T09:39:59;9.30;21.20
2543;DHT22;1116;51.502;7.414;2022-11-13T09:42:33;9.40;19.70
2543;DHT22;1116;51.502;7.414;2022-11-13T09:45:11;9.60;19.80
2543;DHT22;1116;51.502;7.414;2022-11-13T09:47:46;9.60;18.50
2543;DHT22;1116;51.502;7.414;2022-11-13T09:50:22;9.70;16.40
2543;DHT22;1116;51.502;7.414;2022-11-13T09:52:55;10.10;15.30
2543;DHT22;1116;51.502;7.414;2022-11-13T09:55:31;9.80;15.10
2543;DHT22;1116;51.502;7.414;2022-11-13T09:58:06;9.80;12.60
2543;DHT22;1116;51.502;7.414;2022-11-13T10:00:39;9.90;13.20
2543;DHT22;1116;51.502;7.414;2022-11-13T10:03:24;10.00;13.00
2543;DHT22;1116;51.502;7.414;2022-11-13T10:06:26;10.30;13.60
2543;DHT22;1116;51.502;7.414;2022-11-13T10:09:06;10.10;12.90
2543;DHT22;1116;51.502;7.414;2022-11-13T10:11:42;10.10;11.20
2543;DHT22;1116;51.502;7.414;2022-11-13T10:14:18;10.20;11.60
2543;DHT22;1116;51.502;7.414;2022-11-13T10:16:52;10.30;10.10
2543;DHT22;1116;51.502;7.414;2022-11-13T10:19:35;10.50;9.90
2543;DHT22;1116;51.502;7.414;2022-11-13T10:22:13;10.60;10.70
2543;DHT22;1116;51.502;7.414;2022-11-13T10:25:09;10.70;10.30
2543;DHT22;1116;51.502;7.414;2022-11-13T10:27:41;10.80;10.10
2543;DHT22;1116;51.502;7.414;2022-11-13T10:30:15;11.00;8.30
2543;DHT22;1116;51.502;7.414;2022-11-13T10:32:47;11.20;8.40
2543;DHT22;1116;51.502;7.414;2022-11-13T10:35:46;11.20;8.50
2543;DHT22;1116;51.502;7.414;2022-11-13T10:38:22;11.30;7.90
2543;DHT22;1116;51.502;7.414;2022-11-13T10:41:05;11.60;6.60
2543;DHT22;1116;51.502;7.414;2022-11-13T10:43:54;11.80;6.70
2543;DHT22;1116;51.502;7.414;2022-11-13T10:46:26;11.90;6.10
2543;DHT22;1116;51.502;7.414;2022-11-13T10:49:09;12.10;5.80
2543;DHT22;1116;51.502;7.414;2022-11-13T10:51:43;12.30;4.70
2543;DHT22;1116;51.502;7.414;2022-11-13T10:54:21;12.50;3.90
2543;DHT22;1116;51.502;7.414;2022-11-13T10:56:57;12.60;2.70
2543;DHT22;1116;51.502;7.414;2022-11-13T10:59:37;12.70;1.30
2543;DHT22;1116;51.502;7.414;2022-11-13T11:02:15;13.00;2.20
2543;DHT22;1116;51.502;7.414;2022-11-13T11:04:47;13.00;2.20
2543;DHT22;1116;51.502;7.414;2022-11-13T11:07:22;13.10;1.40
2543;DHT22;1116;51.502;7.414;2022-11-13T11:09:56;13.30;1.00
2543;DHT22;1116;51.502;7.414;2022-11-13T11:12:27;13.50;1.00
2543;DHT22;1116;51.502;7.414;2022-11-13T11:15:04;13.50;1.00
2543;DHT22;1116;51.502;7.414;2022-11-13T11:17:41;13.40;1.00
2543;DHT22;1116;51.502;7.414;2022-11-13T11:20:20;13.60;1.00
2543;DHT22;1116;51.502;7.414;2022-11-13T11:22:59;13.70;1.00
2543;DHT22;1116;51.502;7.414;2022-11-13T11:25:36;13.60;1.00
2543;DHT22;1116;51.502;7.414;2022-11-13T11:28:12;13.70;1.00
2543;DHT22;1116;51.502;7.414;2022-11-13T11:30:49;13.70;1.00
2543;DHT22;1116;51.502;7.414;2022-11-13T11:33:30;13.90;1.00
2543;DHT22;1116;51.502;7.414;2022-11-13T11:36:12;14.10;1.00
2543;DHT22;1116;51.502;7.414;2022-11-13T11:38:52;14.10;1.00
2543;DHT22;1116;51.502;7.414;2022-11-13T11:41:29;14.30;1.00
2543;DHT22;1116;51.502;7.414;2022-11-13T11:44:12;14.30;1.00
2543;DHT22;1116;51.502;7.414;2022-11-13T11:46:44;14.50;1.00
2543;DHT22;1116;51.502;7.414;2022-11-13T11:49:15;14.70;1.00
2543;DHT22;1116;51.502;7.414;2022-11-13T11:51:55;14.80;1.00
2543;DHT22;1116;51.502;7.414;2022-11-13T11:54:39;14.80;1.00
2543;DHT22;1116;51.502;7.414;2022-11-13T11:57:30;14.70;1.00
2543;DHT22;1116;51.502;7.414;2022-11-13T12:00:11;14.80;1.00
2543;DHT22;1116;51.502;7.414;2022-11-13T12:03:09;14.90;1.00
2543;DHT22;1116;51.502;7.414;2022-11-13T12:05:49;15.00;1.00
2543;DHT22;1116;51.502;7.414;2022-11-13T12:08:31;15.10;1.00
2543;DHT22;1116;51.502;7.414;2022-11-13T12:11:13;15.50;1.00
2543;DHT22;1116;51.502;7.414;2022-11-13T12:13:51;15.10;1.00
2543;DHT22;1116;51.502;7.414;2022-11-13T12:16:29;15.80;1.00
2543;DHT22;1116;51.502;7.414;2022-11-13T12:19:04;15.40;1.00
2543;DHT22;1116;51.502;7.414;2022-11-13T12:21:44;15.50;1.00
2543;DHT22;1116;51.502;7.414;2022-11-13T12:24:49;15.60;1.00
2543;DHT22;1116;51.502;7.414;2022-11-13T12:27:37;15.70;1.00
2543;DHT22;1116;51.502;7.414;2022-11-13T12:30:13;15.80;1.00
2543;DHT22;1116;51.502;7.414;2022-11-13T12:33:07;15.90;1.00
2543;DHT22;1116;51.502;7.414;2022-11-13T12:35:44;15.90;1.00
2543;DHT22;1116;51.502;7.414;2022-11-13T12:38:24;16.00;1.00
2543;DHT22;1116;51.502;7.414;2022-11-13T12:41:08;16.10;1.00
2543;DHT22;1116;51.502;7.414;2022-11-13T12:44:15;16.20;1.00
2543;DHT22;1116;51.502;7.414;2022-11-13T12:46:50;16.30;1.00
2543;DHT22;1116;51.502;7.414;2022-11-13T12:49:28;16.40;1.00
2543;DHT22;1116;51.502;7.414;2022-11-13T12:52:01;16.50;1.00
2543;DHT22;1116;51.502;7.414;2022-11-13T12:54:34;16.40;1.00
2543;DHT22;1116;51.502;7.414;2022-11-13T12:57:21;16.50;1.00
2543;DHT22;1116;51.502;7.414;2022-11-13T13:00:20;16.40;1.00
2543;DHT22;1116;51.502;7.414;2022-11-13T13:03:00;16.50;1.00
2543;DHT22;1116;51.502;7.414;2022-11-13T13:08:58;16.50;1.00
2543;DHT22;1116;51.502;7.414;2022-11-13T13:11:39;16.50;1.00
2543;DHT22;1116;51.502;7.414;2022-11-13T13:14:24;16.50;1.00
2543;DHT22;1116;51.502;7.414;2022-11-13T13:17:16;16.50;1.00
2543;DHT22;1116;51.502;7.414;2022-11-13T13:20:00;16.60;1.00
2543;DHT22;1116;51.502;7.414;2022-11-13T13:22:32;16.60;1.00
2543;DHT22;1116;51.502;7.414;2022-11-13T13:25:21;16.60;1.00
2543;DHT22;1116;51.502;7.414;2022-11-13T13:27:56;16.50;1.00
2543;DHT22;1116;51.502;7.414;2022-11-13T13:30:31;16.50;1.00
2543;DHT22;1116;51.502;7.414;2022-11-13T13:33:18;16.50;1.00
2543;DHT22;1116;51.502;7.414;2022-11-13T13:36:00;16.60;1.00
2543;DHT22;1116;51.502;7.414;2022-11-13T13:38:43;16.60;1.00
2543;DHT22;1116;51.502;7.414;2022-11-13T13:41:28;16.50;1.00
2543;DHT22;1116;51.502;7.414;2022-11-13T13:44:17;16.50;1.00
2543;DHT22;1116;51.502;7.414;2022-11-13T13:46:55;16.40;1.00
2543;DHT22;1116;51.502;7.414;2022-11-13T13:49:29;16.40;1.00
2543;DHT22;1116;51.502;7.414;2022-11-13T13:52:03;16.40;1.00
2543;DHT22;1116;51.502;7.414;2022-11-13T13:54:35;16.50;1.00
2543;DHT22;1116;51.502;7.414;2022-11-13T13:57:12;16.50;1.00
2543;DHT22;1116;51.502;7.414;2022-11-13T13:59:44;16.50;1.00
2543;DHT22;1116;51.502;7.414;2022-11-13T14:02:16;16.60;1.00
2543;DHT22;1116;51.502;7.414;2022-11-13T14:04:51;16.50;1.00
2543;DHT22;1116;51.502;7.414;2022-11-13T14:07:27;16.60;1.00
2543;DHT22;1116;51.502;7.414;2022-11-13T14:10:06;16.50;1.00
2543;DHT22;1116;51.502;7.414;2022-11-13T14:12:40;16.50;1.00
2543;DHT22;1116;51.502;7.414;2022-11-13T14:15:22;16.50;1.00
2543;DHT22;1116;51.502;7.414;2022-11-13T14:18:05;16.40;1.00
2543;DHT22;1116;51.502;7.414;2022-11-13T14:20:44;16.40;1.00
2543;DHT22;1116;51.502;7.414;2022-11-13T14:23:19;16.40;1.00
2543;DHT22;1116;51.502;7.414;2022-11-13T14:25:53;16.40;1.00
2543;DHT22;1116;51.502;7.414;2022-11-13T14:28:32;16.30;1.00
2543;DHT22;1116;51.502;7.414;2022-11-13T14:31:05;16.30;1.00
2543;DHT22;1116;51.502;7.414;2022-11-13T14:33:42;16.20;1.00
2543;DHT22;1116;51.502;7.414;2022-11-13T14:36:25;16.20;1.00
2543;DHT22;1116;51.502;7.414;2022-11-13T14:38:58;16.00;1.00
2543;DHT22;1116;51.502;7.414;2022-11-13T14:41:33;15.90;1.00
2543;DHT22;1116;51.502;7.414;2022-11-13T14:44:05;15.90;1.00
2543;DHT22;1116;51.502;7.414;2022-11-13T14:46:40;15.70;1.00
2543;DHT22;1116;51.502;7.414;2022-11-13T14:49:14;15.60;1.00
2543;DHT22;1116;51.502;7.414;2022-11-13T14:51:58;15.40;1.00
2543;DHT22;1116;51.502;7.414;2022-11-13T14:54:31;15.30;1.00
2543;DHT22;1116;51.502;7.414;2022-11-13T14:57:22;15.00;1.00
2543;DHT22;1116;51.502;7.414;2022-11-13T14:59:53;14.90;1.00
2543;DHT22;1116;51.502;7.414;2022-11-13T15:02:24;14.80;1.00
2543;DHT22;1116;51.502;7.414;2022-11-13T15:04:55;14.60;1.00
2543;DHT22;1116;51.502;7.414;2022-11-13T15:07:30;14.50;1.00
2543;DHT22;1116;51.502;7.414;2022-11-13T15:10:01;14.40;1.00
2543;DHT22;1116;51.502;7.414;2022-11-13T15:12:35;14.20;1.00
2543;DHT22;1116;51.502;7.414;2022-11-13T15:15:11;14.10;1.00
2543;DHT22;1116;51.502;7.414;2022-11-13T15:17:43;13.90;1.30
2543;DHT22;1116;51.502;7.414;2022-11-13T15:20:16;13.70;1.70
2543;DHT22;1116;51.502;7.414;2022-11-13T15:22:50;13.60;2.70
2543;DHT22;1116;51.502;7.414;2022-11-13T15:25:23;13.40;2.80
2543;DHT22;1116;51.502;7.414;2022-11-13T15:27:54;13.30;3.20
2543;DHT22;1116;51.502;7.414;2022-11-13T15:30:24;13.50;4.10
2543;DHT22;1116;51.502;7.414;2022-11-13T15:32:56;12.90;4.20
2543;DHT22;1116;51.502;7.414;2022-11-13T15:35:29;12.80;4.70
2543;DHT22;1116;51.502;7.414;2022-11-13T15:38:02;12.70;4.90
2543;DHT22;1116;51.502;7.414;2022-11-13T15:40:33;12.50;5.70
2543;DHT22;1116;51.502;7.414;2022-11-13T15:43:05;12.30;6.20
2543;DHT22;1116;51.502;7.414;2022-11-13T15:45:36;12.20;6.60
2543;DHT22;1116;51.502;7.414;2022-11-13T15:48:11;12.10;6.90
2543;DHT22;1116;51.502;7.414;2022-11-13T15:50:43;12.00;6.90
2543;DHT22;1116;51.502;7.414;2022-11-13T15:53:18;11.90;6.90
2543;DHT22;1116;51.502;7.414;2022-11-13T15:55:48;11.80;7.30
2543;DHT22;1116;51.502;7.414;2022-11-13T15:58:19;11.70;7.10
2543;DHT22;1116;51.502;7.414;2022-11-13T16:00:54;11.50;8.60
2543;DHT22;1116;51.502;7.414;2022-11-13T16:03:24;11.40;8.40
2543;DHT22;1116;51.502;7.414;2022-11-13T16:05:58;11.30;8.40
2543;DHT22;1116;51.502;7.414;2022-11-13T16:08:32;11.30;9.50
2543;DHT22;1116;51.502;7.414;2022-11-13T16:11:03;11.10;9.10
2543;DHT22;1116;51.502;7.414;2022-11-13T16:13:34;11.10;9.30
2543;DHT22;1116;51.502;7.414;2022-11-13T16:16:06;11.20;9.60
2543;DHT22;1116;51.502;7.414;2022-11-13T16:18:37;10.90;9.80
2543;DHT22;1116;51.502;7.414;2022-11-13T16:21:12;10.80;10.50
2543;DHT22;1116;51.502;7.414;2022-11-13T16:23:48;10.70;10.50
2543;DHT22;1116;51.502;7.414;2022-11-13T16:26:20;10.60;10.90
2543;DHT22;1116;51.502;7.414;2022-11-13T16:28:55;10.50;11.40
2543;DHT22;1116;51.502;7.414;2022-11-13T16:31:40;10.00;11.30
2543;DHT22;1116;51.502;7.414;2022-11-13T16:34:11;10.30;11.60
2543;DHT22;1116;51.502;7.414;2022-11-13T16:36:44;10.30;12.00
2543;DHT22;1116;51.502;7.414;2022-11-13T16:39:17;10.10;12.00
2543;DHT22;1116;51.502;7.414;2022-11-13T16:41:48;10.10;12.60
2543;DHT22;1116;51.502;7.414;2022-11-13T16:44:19;10.10;12.90
2543;DHT22;1116;51.502;7.414;2022-11-13T16:46:49;10.00;12.30
2543;DHT22;1116;51.502;7.414;2022-11-13T16:49:22;9.90;13.90
2543;DHT22;1116;51.502;7.414;2022-11-13T16:51:53;10.40;13.20
2543;DHT22;1116;51.502;7.414;2022-11-13T16:54:32;9.80;14.60
2543;DHT22;1116;51.502;7.414;2022-11-13T16:57:02;9.80;14.00
2543;DHT22;1116;51.502;7.414;2022-11-13T16:59:33;9.80;14.40
2543;DHT22;1116;51.502;7.414;2022-11-13T17:02:11;9.70;15.00
2543;DHT22;1116;51.502;7.414;2022-11-13T17:04:42;9.70;15.00
2543;DHT22;1116;51.502;7.414;2022-11-13T17:07:16;9.60;14.60